createdAt,value
2022-08-28T00:00:00.212Z,98214.56
2022-08-28T00:02:26.738Z,98213.16
2022-08-28T00:04:53.258Z,98215.09
2022-08-28T00:07:19.771Z,98211.75
2022-08-28T00:09:46.365Z,98209.25
2022-08-28T00:12:13.048Z,98206.75
2022-08-28T00:14:39.769Z,98213.63
2022-08-28T00:17:06.353Z,98204.84
2022-08-28T00:19:38.438Z,98211.00
2022-08-28T00:22:05.876Z,98208.50
2022-08-28T00:24:33.949Z,98208.69
2022-08-28T00:27:18.647Z,98206.19
2022-08-28T00:29:45.314Z,98211.41
2022-08-28T00:32:11.854Z,98214.69
2022-08-28T00:34:38.880Z,98212.16
2022-08-28T00:37:05.952Z,98217.97
2022-08-28T00:39:32.663Z,98214.22
2022-08-28T00:41:59.149Z,98215.44
2022-08-28T00:44:27.892Z,98214.63
2022-08-28T00:46:57.901Z,98219.09
2022-08-28T00:49:33.689Z,98221.25
2022-08-28T00:52:12.327Z,98216.97
2022-08-28T00:54:58.674Z,98215.41
2022-08-28T00:57:35.631Z,98223.41
2022-08-28T01:00:06.546Z,98218.28
2022-08-28T01:02:33.280Z,98223.41
2022-08-28T01:04:59.913Z,98213.91
2022-08-28T01:07:26.546Z,98215.66
2022-08-28T01:09:55.496Z,98214.75
2022-08-28T01:12:25.349Z,98223.50
2022-08-28T01:14:54.859Z,98211.41
2022-08-28T01:17:23.670Z,98207.09
2022-08-28T01:19:57.173Z,98205.53
2022-08-28T01:22:59.131Z,98209.63
2022-08-28T01:25:30.656Z,98208.78
2022-08-28T01:27:58.063Z,98213.34
2022-08-28T01:30:25.269Z,98212.53
2022-08-28T01:32:55.307Z,98209.06
2022-08-28T01:35:26.354Z,98212.06
2022-08-28T01:37:54.740Z,98215.72
2022-08-28T01:40:26.552Z,98214.97
2022-08-28T01:42:53.810Z,98216.75
2022-08-28T01:45:21.925Z,98215.88
2022-08-28T01:47:48.532Z,98213.56
2022-08-28T01:50:23.301Z,98218.06
2022-08-28T01:52:49.882Z,98216.28
2022-08-28T01:55:16.506Z,98217.97
2022-08-28T01:57:51.399Z,98214.78
2022-08-28T02:00:18.464Z,98216.56
2022-08-28T02:02:44.986Z,98216.56
2022-08-28T02:05:12.096Z,98222.50
2022-08-28T02:07:39.172Z,98220.84
2022-08-28T02:10:08.143Z,98222.69
2022-08-28T02:12:34.807Z,98218.63
2022-08-28T02:15:01.819Z,98223.09
2022-08-28T02:17:28.502Z,98222.91
2022-08-28T02:19:54.993Z,98220.56
2022-08-28T02:22:21.498Z,98223.28
2022-08-28T02:24:48.046Z,98224.09
2022-08-28T02:27:14.603Z,98226.72
2022-08-28T02:29:41.165Z,98230.38
2022-08-28T02:32:08.246Z,98221.88
2022-08-28T02:34:35.039Z,98221.97
2022-08-28T02:37:02.223Z,98224.69
2022-08-28T02:39:28.763Z,98227.19
2022-08-28T02:41:55.650Z,98226.38
2022-08-28T02:44:22.234Z,98220.28
2022-08-28T02:46:48.688Z,98227.66
2022-08-28T02:52:00.910Z,98224.59
2022-08-28T02:54:27.479Z,98218.44
2022-08-28T02:56:54.464Z,98219.94
2022-08-28T02:59:21.361Z,98220.88
2022-08-28T03:01:48.538Z,98219.28
2022-08-28T03:04:15.046Z,98223.75
2022-08-28T03:06:42.083Z,98214.34
2022-08-28T03:09:08.802Z,98212.47
2022-08-28T03:11:36.937Z,98218.44
2022-08-28T03:14:04.944Z,98218.16
2022-08-28T03:16:32.589Z,98213.69
2022-08-28T03:18:59.323Z,98215.06
2022-08-28T03:21:25.922Z,98213.59
2022-08-28T03:23:52.421Z,98217.97
2022-08-28T03:26:20.388Z,98218.81
2022-08-28T03:28:50.735Z,98217.88
2022-08-28T03:31:20.199Z,98212.56
2022-08-28T03:33:47.787Z,98214.16
2022-08-28T03:36:21.458Z,98223.84
2022-08-28T03:38:49.858Z,98223.00
2022-08-28T03:41:19.415Z,98221.97
2022-08-28T03:43:54.093Z,98223.09
2022-08-28T03:46:24.384Z,98224.97
2022-08-28T03:48:52.495Z,98227.66
2022-08-28T03:51:29.585Z,98225.16
2022-08-28T03:53:57.965Z,98225.22
2022-08-28T03:56:27.501Z,98225.16
2022-08-28T03:58:58.084Z,98229.50
2022-08-28T04:01:25.722Z,98227.81
2022-08-28T04:03:52.451Z,98237.28
2022-08-28T04:06:19.804Z,98241.53
2022-08-28T04:08:47.170Z,98237.91
2022-08-28T04:11:13.676Z,98235.31
2022-08-28T04:13:41.712Z,98245.81
2022-08-28T04:16:11.942Z,98246.91
2022-08-28T04:18:40.642Z,98242.63
2022-08-28T04:21:28.926Z,98252.13
2022-08-28T04:23:55.624Z,98245.16
2022-08-28T04:26:25.064Z,98246.00
2022-08-28T04:28:52.804Z,98248.88
2022-08-28T04:31:32.427Z,98250.44
2022-08-28T04:34:05.125Z,98250.63
2022-08-28T04:36:33.540Z,98254.81
2022-08-28T04:39:00.418Z,98257.44
2022-08-28T04:41:28.391Z,98263.75
2022-08-28T04:43:57.462Z,98264.53
2022-08-28T04:46:31.197Z,98261.25
2022-08-28T04:48:58.561Z,98265.53
2022-08-28T04:51:25.201Z,98260.41
2022-08-28T04:53:52.449Z,98262.19
2022-08-28T04:56:19.116Z,98269.91
2022-08-28T04:58:45.675Z,98264.63
2022-08-28T05:01:18.914Z,98263.66
2022-08-28T05:03:48.895Z,98269.63
2022-08-28T05:06:16.882Z,98266.94
2022-08-28T05:08:44.062Z,98272.81
2022-08-28T05:11:13.974Z,98271.72
2022-08-28T05:13:52.581Z,98277.75
2022-08-28T05:16:22.407Z,98274.50
2022-08-28T05:18:49.996Z,98271.53
2022-08-28T05:21:20.631Z,98273.84
2022-08-28T05:23:53.504Z,98275.44
2022-08-28T05:26:20.659Z,98278.16
2022-08-28T05:28:48.455Z,98278.25
2022-08-28T05:31:21.141Z,98285.88
2022-08-28T05:33:49.277Z,98285.69
2022-08-28T05:36:18.139Z,98287.38
2022-08-28T05:38:44.654Z,98285.41
2022-08-28T05:41:11.938Z,98292.03
2022-08-28T05:43:39.195Z,98287.94
2022-08-28T05:46:10.451Z,98300.69
2022-08-28T05:48:39.647Z,98289.44
2022-08-28T05:51:09.266Z,98296.03
2022-08-28T05:53:43.346Z,98300.97
2022-08-28T05:56:19.428Z,98304.16
2022-08-28T05:58:45.946Z,98310.09
2022-08-28T06:01:20.185Z,98301.25
2022-08-28T06:03:54.987Z,98304.31
2022-08-28T06:06:24.493Z,98307.69
2022-08-28T06:08:59.323Z,98315.84
2022-08-28T06:11:30.578Z,98308.78
2022-08-28T06:14:01.780Z,98306.91
2022-08-28T06:16:32.174Z,98307.19
2022-08-28T06:19:00.632Z,98312.59
2022-08-28T06:21:27.720Z,98317.34
2022-08-28T06:23:56.099Z,98315.47
2022-08-28T06:26:23.709Z,98322.66
2022-08-28T06:28:50.169Z,98326.03
2022-08-28T06:31:24.519Z,98320.63
2022-08-28T06:33:54.442Z,98328.78
2022-08-28T06:36:21.580Z,98326.72
2022-08-28T06:38:48.051Z,98322.56
2022-08-28T06:41:15.585Z,98323.13
2022-08-28T06:43:42.465Z,98325.75
2022-08-28T06:46:09.136Z,98328.06
2022-08-28T06:48:44.062Z,98331.13
2022-08-28T06:51:12.405Z,98326.50
2022-08-28T06:53:40.949Z,98331.91
2022-08-28T06:56:09.232Z,98333.38
2022-08-28T06:58:40.644Z,98329.72
2022-08-28T07:01:17.480Z,98339.13
2022-08-28T07:03:45.494Z,98340.06
2022-08-28T07:06:13.740Z,98345.63
2022-08-28T07:08:41.362Z,98337.16
2022-08-28T07:11:13.191Z,98329.91
2022-08-28T07:13:43.796Z,98341.03
2022-08-28T07:16:11.220Z,98346.78
2022-08-28T07:18:38.184Z,98340.41
2022-08-28T07:21:08.067Z,98347.00
2022-08-28T07:23:38.724Z,98348.03
2022-08-28T07:26:08.227Z,98342.91
2022-08-28T07:28:35.036Z,98348.97
2022-08-28T07:31:06.114Z,98349.34
2022-08-28T07:33:33.580Z,98350.03
2022-08-28T07:36:00.322Z,98355.22
2022-08-28T07:38:27.518Z,98361.84
2022-08-28T07:40:55.033Z,98353.97
2022-08-28T07:43:40.118Z,98360.69
2022-08-28T07:46:09.465Z,98359.53
2022-08-28T07:48:37.488Z,98365.69
2022-08-28T07:51:05.191Z,98362.25
2022-08-28T07:53:36.227Z,98364.53
2022-08-28T07:56:04.097Z,98373.88
2022-08-28T07:58:30.594Z,98371.56
2022-08-28T08:00:58.432Z,98377.34
2022-08-28T08:03:25.698Z,98372.09
2022-08-28T08:05:53.683Z,98367.41
2022-08-28T08:08:20.181Z,98380.94
2022-08-28T08:10:56.029Z,98377.63
2022-08-28T08:13:22.886Z,98369.28
2022-08-28T08:15:49.491Z,98369.66
2022-08-28T08:18:17.110Z,98366.06
2022-08-28T08:20:47.705Z,98375.75
2022-08-28T08:23:15.446Z,98378.75
2022-08-28T08:25:41.816Z,98378.00
2022-08-28T08:28:08.536Z,98376.75
2022-08-28T08:30:36.172Z,98381.03
2022-08-28T08:33:02.589Z,98383.53
2022-08-28T08:35:29.075Z,98385.22
2022-08-28T08:37:55.535Z,98379.38
2022-08-28T08:40:22.240Z,98389.75
2022-08-28T08:42:51.251Z,98393.22
2022-08-28T08:45:21.384Z,98394.50
2022-08-28T08:47:55.811Z,98392.06
2022-08-28T08:50:32.506Z,98393.44
2022-08-28T08:53:28.385Z,98401.97
2022-08-28T08:55:57.829Z,98396.81
2022-08-28T08:58:32.717Z,98401.78
2022-08-28T09:01:18.414Z,98406.94
2022-08-28T09:04:10.195Z,98399.09
2022-08-28T09:06:58.407Z,98407.59
2022-08-28T09:09:35.093Z,98406.03
2022-08-28T09:12:03.630Z,98410.09
2022-08-28T09:14:51.831Z,98407.34
2022-08-28T09:17:22.097Z,98403.16
2022-08-28T09:19:49.394Z,98411.50
2022-08-28T09:22:16.263Z,98409.72
2022-08-28T09:24:43.676Z,98409.63
2022-08-28T09:27:29.573Z,98409.16
2022-08-28T09:29:59.587Z,98414.75
2022-08-28T09:32:41.543Z,98413.34
2022-08-28T09:35:24.419Z,98413.94
2022-08-28T09:37:51.394Z,98411.56
2022-08-28T09:40:50.883Z,98420.13
2022-08-28T09:43:26.698Z,98417.66
2022-08-28T09:46:18.319Z,98409.72
2022-08-28T09:48:46.859Z,98412.03
2022-08-28T09:51:28.143Z,98409.03
2022-08-28T09:53:54.624Z,98410.44
2022-08-28T09:56:34.563Z,98407.47
2022-08-28T09:59:05.775Z,98412.34
2022-08-28T10:01:45.205Z,98410.22
2022-08-28T10:04:32.733Z,98416.44
2022-08-28T10:07:05.465Z,98417.28
2022-08-28T10:09:54.855Z,98418.09
2022-08-28T10:12:33.450Z,98423.22
2022-08-28T10:15:22.183Z,98413.38
2022-08-28T10:18:17.414Z,98419.00
2022-08-28T10:20:49.830Z,98409.34
2022-08-28T10:23:28.711Z,98415.25
2022-08-28T10:25:55.215Z,98416.03
2022-08-28T10:28:41.985Z,98411.53
2022-08-28T10:31:45.740Z,98408.22
2022-08-28T10:34:21.205Z,98406.72
2022-08-28T10:37:03.375Z,98404.00
2022-08-28T10:39:53.907Z,98400.81
2022-08-28T10:42:36.294Z,98403.94
2022-08-28T10:45:17.002Z,98410.34
2022-08-28T10:47:45.796Z,98408.91
2022-08-28T10:50:20.968Z,98403.16
2022-08-28T10:53:10.267Z,98404.34
2022-08-28T10:55:51.349Z,98404.69
2022-08-28T10:58:24.834Z,98400.41
2022-08-28T11:00:55.524Z,98409.00
2022-08-28T11:03:34.383Z,98411.16
2022-08-28T11:06:40.307Z,98405.44
2022-08-28T11:09:25.934Z,98407.72
2022-08-28T11:12:19.795Z,98410.63
2022-08-28T11:14:49.511Z,98405.84
2022-08-28T11:17:22.106Z,98410.03
2022-08-28T11:20:07.332Z,98414.31
2022-08-28T11:22:39.917Z,98413.88
2022-08-28T11:25:42.321Z,98414.84
2022-08-28T11:28:23.606Z,98412.81
2022-08-28T11:31:10.148Z,98408.09
2022-08-28T11:33:46.675Z,98412.00
2022-08-28T11:36:19.342Z,98406.22
2022-08-28T11:38:45.733Z,98412.16
2022-08-28T11:41:21.772Z,98410.03
2022-08-28T11:43:52.364Z,98409.19
2022-08-28T11:46:33.910Z,98409.72
2022-08-28T11:49:05.205Z,98411.91
2022-08-28T11:51:40.991Z,98412.13
2022-08-28T11:54:26.352Z,98404.19
2022-08-28T11:57:06.157Z,98416.41
2022-08-28T11:59:59.779Z,98411.81
2022-08-28T12:02:39.162Z,98409.03
2022-08-28T12:05:09.339Z,98419.00
2022-08-28T12:07:39.047Z,98409.63
2022-08-28T12:10:20.677Z,98410.56
2022-08-28T12:12:47.151Z,98407.88
2022-08-28T12:15:34.111Z,98416.41
2022-08-28T12:18:10.750Z,98405.88
2022-08-28T12:20:53.623Z,98403.81
2022-08-28T12:23:37.374Z,98400.75
2022-08-28T12:26:08.982Z,98396.31
2022-08-28T12:29:01.187Z,98394.13
2022-08-28T12:31:53.703Z,98395.28
2022-08-28T12:34:52.867Z,98387.84
2022-08-28T12:37:52.347Z,98396.31
2022-08-28T12:40:27.692Z,98393.72
2022-08-28T12:43:15.571Z,98391.94
2022-08-28T12:45:55.972Z,98397.41
2022-08-28T12:48:29.540Z,98389.47
2022-08-28T12:51:00.599Z,98387.66
2022-08-28T12:53:57.362Z,98388.22
2022-08-28T12:56:26.059Z,98389.63
2022-08-28T12:58:52.878Z,98382.53
2022-08-28T13:01:33.500Z,98388.22
2022-08-28T13:04:04.492Z,98383.91
2022-08-28T13:06:36.391Z,98379.84
2022-08-28T13:09:16.424Z,98382.81
2022-08-28T13:11:49.209Z,98378.34
2022-08-28T13:14:41.954Z,98387.13
2022-08-28T13:17:10.108Z,98381.31
2022-08-28T13:19:37.906Z,98381.09
2022-08-28T13:22:25.068Z,98374.31
2022-08-28T13:24:59.184Z,98381.38
2022-08-28T13:27:25.714Z,98374.09
2022-08-28T13:30:06.857Z,98378.09
2022-08-28T13:32:37.345Z,98364.69
2022-08-28T13:35:18.444Z,98367.56
2022-08-28T13:37:48.370Z,98364.84
2022-08-28T13:40:45.925Z,98370.38
2022-08-28T13:43:08.169Z,98365.13
2022-08-28T13:45:42.911Z,98362.75
2022-08-28T13:48:13.126Z,98370.94
2022-08-28T13:50:42.880Z,98367.50
2022-08-28T13:53:14.523Z,98373.41
2022-08-28T13:55:41.117Z,98373.97
2022-08-28T13:58:07.679Z,98371.75
2022-08-28T14:00:39.645Z,98374.78
2022-08-28T14:03:24.758Z,98373.38
2022-08-28T14:05:51.192Z,98364.47
2022-08-28T14:08:17.607Z,98371.91
2022-08-28T14:10:44.130Z,98371.50
2022-08-28T14:13:10.539Z,98363.25
2022-08-28T14:15:36.983Z,98373.53
2022-08-28T14:18:03.408Z,98372.38
2022-08-28T14:20:29.924Z,98369.53
2022-08-28T14:22:56.348Z,98373.91
2022-08-28T14:25:23.343Z,98373.78
2022-08-28T14:27:49.826Z,98365.88
2022-08-28T14:30:16.955Z,98364.03
2022-08-28T14:32:43.411Z,98372.28
2022-08-28T14:35:10.367Z,98363.38
2022-08-28T14:37:36.896Z,98362.56
2022-08-28T14:40:04.789Z,98369.78
2022-08-28T14:42:31.294Z,98368.09
2022-08-28T14:44:57.772Z,98363.50
2022-08-28T14:47:24.945Z,98371.75
2022-08-28T14:49:51.437Z,98362.88
2022-08-28T14:52:19.447Z,98367.28
2022-08-28T14:54:45.954Z,98366.34
2022-08-28T14:57:12.464Z,98362.06
2022-08-28T14:59:39.382Z,98358.72
2022-08-28T15:02:06.413Z,98357.91
2022-08-28T15:04:37.925Z,98354.31
2022-08-28T15:07:10.599Z,98358.84
2022-08-28T15:09:39.626Z,98355.34
2022-08-28T15:12:06.864Z,98354.63
2022-08-28T15:14:34.454Z,98351.31
2022-08-28T15:17:01.668Z,98355.22
2022-08-28T15:19:29.933Z,98351.84
2022-08-28T15:21:57.431Z,98355.34
2022-08-28T15:24:28.412Z,98351.16
2022-08-28T15:26:59.528Z,98354.75
2022-08-28T15:29:27.938Z,98346.22
2022-08-28T15:31:54.620Z,98351.63
2022-08-28T15:34:24.283Z,98347.34
2022-08-28T15:36:55.891Z,98349.22
2022-08-28T15:39:46.401Z,98345.41
2022-08-28T15:42:13.311Z,98344.72
2022-08-28T15:44:40.160Z,98340.13
2022-08-28T15:47:07.026Z,98335.13
2022-08-28T15:49:43.371Z,98342.34
2022-08-28T15:52:15.488Z,98335.34
2022-08-28T15:54:42.625Z,98343.25
2022-08-28T15:57:09.053Z,98335.00
2022-08-28T15:59:39.951Z,98339.19
2022-08-28T16:02:17.611Z,98337.91
2022-08-28T16:04:44.088Z,98341.41
2022-08-28T16:07:11.085Z,98337.03
2022-08-28T16:09:37.817Z,98338.53
2022-08-28T16:12:04.726Z,98342.84
2022-08-28T16:14:32.782Z,98345.34
2022-08-28T16:16:59.386Z,98346.28
2022-08-28T16:19:32.617Z,98338.09
2022-08-28T16:21:59.130Z,98347.75
2022-08-28T16:24:25.639Z,98346.22
2022-08-28T16:26:52.072Z,98346.94
2022-08-28T16:29:18.684Z,98342.16
2022-08-28T16:31:47.951Z,98340.19
2022-08-28T16:34:15.635Z,98341.25
2022-08-28T16:36:48.090Z,98346.63
2022-08-28T16:39:14.642Z,98334.28
2022-08-28T16:41:42.095Z,98336.53
2022-08-28T16:44:08.809Z,98341.94
2022-08-28T16:46:35.275Z,98338.16
2022-08-28T16:49:01.848Z,98343.41
2022-08-28T16:51:29.588Z,98348.91
2022-08-28T16:53:56.465Z,98343.66
2022-08-28T16:56:26.606Z,98341.97
2022-08-28T16:58:53.463Z,98342.22
2022-08-28T17:01:22.050Z,98343.00
2022-08-28T17:03:52.199Z,98342.06
2022-08-28T17:06:20.755Z,98343.03
2022-08-28T17:08:48.028Z,98341.25
2022-08-28T17:11:14.602Z,98346.41
2022-08-28T17:13:41.191Z,98340.94
2022-08-28T17:16:08.145Z,98342.38
2022-08-28T17:18:35.578Z,98338.44
2022-08-28T17:21:20.717Z,98341.69
2022-08-28T17:23:47.310Z,98345.00
2022-08-28T17:26:15.281Z,98349.19
2022-08-28T17:28:43.119Z,98346.34
2022-08-28T17:31:09.608Z,98334.78
2022-08-28T17:33:38.266Z,98340.97
2022-08-28T17:36:06.514Z,98348.84
2022-08-28T17:38:44.999Z,98343.22
2022-08-28T17:41:11.538Z,98341.25
2022-08-28T17:43:38.822Z,98352.22
2022-08-28T17:46:06.150Z,98352.94
2022-08-28T17:48:32.715Z,98348.47
2022-08-28T17:51:01.683Z,98351.56
2022-08-28T17:53:30.953Z,98354.19
2022-08-28T17:55:57.464Z,98359.38
2022-08-28T17:58:24.125Z,98362.47
2022-08-28T18:00:51.314Z,98357.84
2022-08-28T18:03:17.785Z,98366.66
2022-08-28T18:05:44.240Z,98363.75
2022-08-28T18:08:10.718Z,98363.56
2022-08-28T18:10:37.486Z,98357.72
2022-08-28T18:13:05.794Z,98364.69
2022-08-28T18:15:37.902Z,98366.41
2022-08-28T18:18:04.860Z,98368.00
2022-08-28T18:20:31.303Z,98366.00
2022-08-28T18:22:57.847Z,98374.19
2022-08-28T18:25:50.612Z,98375.97
2022-08-28T18:28:22.483Z,98380.94
2022-08-28T18:30:53.401Z,98377.88
2022-08-28T18:33:22.796Z,98383.53
2022-08-28T18:35:50.554Z,98380.50
2022-08-28T18:38:18.865Z,98386.25
2022-08-28T18:40:48.148Z,98389.50
2022-08-28T18:43:14.939Z,98384.59
2022-08-28T18:45:41.421Z,98396.28
2022-08-28T18:48:10.711Z,98401.91
2022-08-28T18:50:37.931Z,98396.25
2022-08-28T18:53:05.438Z,98398.31
2022-08-28T18:55:33.445Z,98402.13
2022-08-28T18:58:00.364Z,98410.59
2022-08-28T19:00:27.263Z,98407.56
2022-08-28T19:02:54.390Z,98412.34
2022-08-28T19:05:21.529Z,98419.66
2022-08-28T19:07:48.593Z,98417.41
2022-08-28T19:10:32.768Z,98420.44
2022-08-28T19:13:01.060Z,98424.28
2022-08-28T19:15:28.639Z,98424.56
2022-08-28T19:17:55.368Z,98424.13
2022-08-28T19:20:22.426Z,98428.25
2022-08-28T19:22:49.502Z,98433.84
2022-08-28T19:25:22.420Z,98431.63
2022-08-28T19:27:59.170Z,98431.28
2022-08-28T19:30:27.586Z,98434.13
2022-08-28T19:32:54.053Z,98436.16
2022-08-28T19:35:20.915Z,98437.38
2022-08-28T19:37:50.893Z,98443.63
2022-08-28T19:40:17.389Z,98441.97
2022-08-28T19:42:43.981Z,98443.06
2022-08-28T19:45:12.456Z,98443.53
2022-08-28T19:47:40.020Z,98451.47
2022-08-28T19:50:08.893Z,98455.19
2022-08-28T19:52:36.623Z,98460.00
2022-08-28T19:55:05.603Z,98463.72
2022-08-28T19:57:32.955Z,98471.00
2022-08-28T20:00:00.071Z,98475.56
2022-08-28T20:02:27.271Z,98477.34
2022-08-28T20:04:54.476Z,98472.47
2022-08-28T20:07:20.941Z,98477.09
2022-08-28T20:09:47.419Z,98486.97
2022-08-28T20:12:14.599Z,98487.81
2022-08-28T20:14:42.547Z,98490.50
2022-08-28T20:17:09.426Z,98494.22
2022-08-28T20:19:35.946Z,98491.69
2022-08-28T20:22:03.796Z,98493.66
2022-08-28T20:24:30.362Z,98492.88
2022-08-28T20:26:57.399Z,98493.94
2022-08-28T20:29:24.207Z,98492.41
2022-08-28T20:31:51.163Z,98495.28
2022-08-28T20:34:19.169Z,98494.59
2022-08-28T20:36:46.275Z,98494.66
2022-08-28T20:39:13.135Z,98495.91
2022-08-28T20:41:49.949Z,98489.19
2022-08-28T20:44:32.159Z,98498.97
2022-08-28T20:46:58.616Z,98493.94
2022-08-28T20:49:25.198Z,98491.84
2022-08-28T20:51:58.688Z,98496.19
2022-08-28T20:54:33.649Z,98495.38
2022-08-28T20:57:02.971Z,98494.59
2022-08-28T20:59:37.249Z,98495.78
2022-08-28T21:02:15.765Z,98505.28
2022-08-28T21:04:44.349Z,98501.84
2022-08-28T21:07:14.889Z,98499.47
2022-08-28T21:10:04.208Z,98507.31
2022-08-28T21:12:28.190Z,98502.84
2022-08-28T21:14:54.653Z,98517.56
2022-08-28T21:17:28.692Z,98511.66
2022-08-28T21:19:57.099Z,98510.75
2022-08-28T21:22:23.645Z,98512.59
2022-08-28T21:24:50.068Z,98512.75
2022-08-28T21:27:16.586Z,98512.94
2022-08-28T21:29:45.905Z,98512.00
2022-08-28T21:32:12.740Z,98510.47
2022-08-28T21:34:39.245Z,98510.72
2022-08-28T21:37:06.403Z,98516.88
2022-08-28T21:39:33.113Z,98516.09
2022-08-28T21:41:59.656Z,98512.75
2022-08-28T21:44:26.302Z,98520.66
2022-08-28T21:46:52.837Z,98517.25
2022-08-28T21:49:19.312Z,98517.25
2022-08-28T21:51:45.905Z,98524.31
2022-08-28T21:54:12.513Z,98518.28
2022-08-28T21:56:39.050Z,98522.72
2022-08-28T21:59:06.355Z,98517.69
2022-08-28T22:01:32.881Z,98518.59
2022-08-28T22:03:59.385Z,98515.25
2022-08-28T22:06:26.611Z,98515.31
2022-08-28T22:08:54.761Z,98515.41
2022-08-28T22:11:25.108Z,98513.72
2022-08-28T22:13:52.702Z,98513.72
2022-08-28T22:16:19.442Z,98513.78
2022-08-28T22:18:46.172Z,98514.94
2022-08-28T22:21:33.765Z,98524.78
2022-08-28T22:24:00.703Z,98523.09
2022-08-28T22:26:27.858Z,98532.28
2022-08-28T22:28:55.874Z,98530.22
2022-08-28T22:31:23.194Z,98533.81
2022-08-28T22:33:49.753Z,98531.38
2022-08-28T22:36:17.326Z,98534.81
2022-08-28T22:38:52.458Z,98535.72
2022-08-28T22:41:20.743Z,98546.13
2022-08-28T22:43:51.251Z,98549.03
2022-08-28T22:46:20.445Z,98552.78
2022-08-28T22:48:47.147Z,98554.78
2022-08-28T22:51:18.262Z,98550.50
2022-08-28T22:53:45.238Z,98548.22
2022-08-28T22:56:12.830Z,98550.88
2022-08-28T22:58:40.039Z,98554.47
2022-08-28T23:01:15.115Z,98551.94
2022-08-28T23:08:46.953Z,98552.63
2022-08-28T23:12:07.645Z,98550.03
2022-08-28T23:22:34.019Z,98545.34
2022-08-28T23:26:53.827Z,98550.00
2022-08-28T23:51:53.406Z,98554.25
2022-08-28T23:54:22.959Z,98550.88
2022-08-28T23:57:08.098Z,98547.66
